createdAt,value
2023-01-11T00:03:34.868Z,100589.00
2023-01-11T00:08:38.915Z,100632.16
2023-01-11T00:13:41.510Z,100614.34
2023-01-11T00:18:44.164Z,100627.00
2023-01-11T00:23:49.892Z,100619.81
2023-01-11T00:28:53.274Z,100614.34
2023-01-11T00:33:55.923Z,100608.69
2023-01-11T00:38:59.810Z,100590.56
2023-01-11T00:44:21.352Z,100590.16
2023-01-11T00:49:24.280Z,100576.88
2023-01-11T00:54:28.404Z,100581.56
2023-01-11T00:59:30.990Z,100573.81
2023-01-11T01:04:33.628Z,100568.53
2023-01-11T01:09:37.549Z,100556.34
2023-01-11T01:14:41.883Z,100566.91
2023-01-11T01:19:44.629Z,100556.78
2023-01-11T01:24:48.622Z,100569.16
2023-01-11T01:29:51.247Z,100561.97
2023-01-11T01:34:53.796Z,100550.63
2023-01-11T01:39:58.290Z,100553.31
2023-01-11T01:45:04.329Z,100559.84
2023-01-11T01:50:13.021Z,100537.00
2023-01-11T01:55:24.293Z,100549.16
2023-01-11T02:06:01.992Z,100544.88
2023-01-11T02:11:28.556Z,100535.53
2023-01-11T02:16:31.438Z,100532.91
2023-01-11T02:21:48.337Z,100523.44
2023-01-11T02:27:17.312Z,100518.97
2023-01-11T02:32:30.182Z,100517.13
2023-01-11T02:37:41.614Z,100512.59
2023-01-11T02:43:06.373Z,100515.75
2023-01-11T02:48:20.521Z,100503.19
2023-01-11T02:53:27.011Z,100496.97
2023-01-11T02:58:33.640Z,100514.22
2023-01-11T03:03:37.692Z,100494.66
2023-01-11T03:09:07.805Z,100501.47
2023-01-11T03:14:20.498Z,100497.44
2023-01-11T03:19:32.051Z,100469.38
2023-01-11T03:24:45.583Z,100501.94
2023-01-11T03:29:52.211Z,100488.19
2023-01-11T03:35:05.120Z,100485.78
2023-01-11T03:40:14.029Z,100479.63
2023-01-11T03:45:17.409Z,100474.75
2023-01-11T03:50:23.412Z,100465.56
2023-01-11T03:55:31.126Z,100468.31
2023-01-11T04:00:36.078Z,100456.78
2023-01-11T04:05:43.753Z,100464.63
2023-01-11T04:10:46.444Z,100467.34
2023-01-11T04:15:49.044Z,100373.38
2023-01-11T04:20:53.381Z,100455.13
2023-01-11T04:25:55.952Z,100458.69
2023-01-11T04:30:58.558Z,100458.66
2023-01-11T04:36:06.694Z,100457.16
2023-01-11T04:41:26.706Z,100448.63
2023-01-11T04:46:29.358Z,100446.72
2023-01-11T04:51:33.696Z,100452.78
2023-01-11T04:56:37.093Z,100461.44
2023-01-11T05:01:39.691Z,100452.28
2023-01-11T05:06:44.115Z,100443.38
2023-01-11T05:11:46.984Z,100451.22
2023-01-11T05:16:49.751Z,100456.69
2023-01-11T05:21:53.891Z,100430.50
2023-01-11T05:26:56.511Z,100438.63
2023-01-11T05:31:59.166Z,100451.22
2023-01-11T05:37:03.172Z,100454.81
2023-01-11T05:42:05.967Z,100449.22
2023-01-11T05:47:08.752Z,100459.91
2023-01-11T05:52:12.661Z,100455.47
2023-01-11T05:57:16.007Z,100456.19
2023-01-11T06:02:19.100Z,100458.31
2023-01-11T06:07:24.882Z,100447.72
2023-01-11T06:12:27.490Z,100368.53
2023-01-11T06:17:30.178Z,100455.06
2023-01-11T06:22:34.083Z,100457.41
2023-01-11T06:27:36.779Z,100461.84
2023-01-11T06:32:39.672Z,100461.19
2023-01-11T06:37:43.570Z,100469.09
2023-01-11T06:42:46.118Z,100474.81
2023-01-11T06:47:49.179Z,100489.03
2023-01-11T06:52:56.658Z,100490.09
2023-01-11T06:57:59.219Z,100504.19
2023-01-11T07:03:04.788Z,100485.56
2023-01-11T07:08:09.287Z,100434.66
2023-01-11T07:13:12.077Z,100512.25
2023-01-11T07:18:15.060Z,100542.63
2023-01-11T07:23:19.247Z,100538.41
2023-01-11T07:28:21.791Z,100531.31
2023-01-11T07:33:24.698Z,100433.06
2023-01-11T07:38:29.284Z,100543.59
2023-01-11T07:43:33.409Z,100544.66
2023-01-11T07:48:35.986Z,100535.41
2023-01-11T07:53:39.924Z,100558.88
2023-01-11T07:58:42.577Z,100578.88
2023-01-11T08:03:45.381Z,100528.72
2023-01-11T08:08:49.339Z,100604.34
2023-01-11T08:14:09.649Z,100593.94
2023-01-11T08:19:12.232Z,100615.09
2023-01-11T08:24:16.698Z,100626.16
2023-01-11T08:29:19.589Z,100641.91
2023-01-11T08:34:22.617Z,100662.44
2023-01-11T08:39:29.421Z,100670.41
2023-01-11T08:44:34.362Z,100675.25
2023-01-11T08:49:37.350Z,100672.78
2023-01-11T08:54:41.642Z,100683.13
2023-01-11T08:59:44.200Z,100685.13
2023-01-11T09:04:46.846Z,100701.22
2023-01-11T09:09:51.949Z,100730.06
2023-01-11T09:14:54.655Z,100725.94
2023-01-11T09:19:57.211Z,100729.47
2023-01-11T09:25:01.146Z,100736.78
2023-01-11T09:30:03.815Z,100737.50
2023-01-11T09:35:07.457Z,100738.16
2023-01-11T09:40:20.187Z,100753.41
2023-01-11T09:45:24.327Z,100766.44
2023-01-11T09:50:30.906Z,100765.94
2023-01-11T09:55:39.034Z,100789.69
2023-01-11T10:00:53.661Z,100794.84
2023-01-11T10:06:11.880Z,100793.69
2023-01-11T10:18:41.723Z,100805.03
2023-01-11T10:22:32.546Z,100810.91
2023-01-11T10:27:40.209Z,100809.38
2023-01-11T10:32:53.860Z,100799.41
2023-01-11T10:38:25.230Z,100818.94
2023-01-11T10:43:32.723Z,100810.09
2023-01-11T10:48:38.427Z,100808.06
2023-01-11T10:53:44.481Z,100814.03
2023-01-11T10:59:07.309Z,100800.22
2023-01-11T11:04:28.588Z,100832.50
2023-01-11T11:09:39.570Z,100824.31
2023-01-11T11:14:51.415Z,100825.91
2023-01-11T11:19:54.188Z,100828.16
2023-01-11T11:25:01.093Z,100820.56
2023-01-11T11:30:05.911Z,100817.97
2023-01-11T11:35:30.365Z,100836.09
2023-01-11T11:40:35.498Z,100840.84
2023-01-11T11:45:51.685Z,100849.78
2023-01-11T11:50:56.440Z,100846.69
2023-01-11T11:55:59.561Z,100837.56
2023-01-11T12:01:08.020Z,100841.28
2023-01-11T12:06:10.806Z,100856.25
2023-01-11T12:11:20.163Z,100843.88
2023-01-11T12:16:24.216Z,100844.41
2023-01-11T12:21:29.329Z,100845.00
2023-01-11T12:26:37.741Z,100753.88
2023-01-11T12:31:59.103Z,100832.31
2023-01-11T12:37:12.950Z,100837.28
2023-01-11T12:42:39.646Z,100848.47
2023-01-11T12:48:06.181Z,100840.06
2023-01-11T12:53:31.374Z,100857.19
2023-01-11T12:58:39.347Z,100844.06
2023-01-11T13:04:23.788Z,100859.00
2023-01-11T13:09:39.285Z,100860.09
2023-01-11T13:15:03.222Z,100865.53
2023-01-11T13:20:29.372Z,100879.78
2023-01-11T13:25:36.428Z,100866.97
2023-01-11T13:30:48.257Z,100880.53
2023-01-11T13:35:57.442Z,100872.75
2023-01-11T13:41:07.977Z,100877.53
2023-01-11T13:46:19.076Z,100879.22
2023-01-11T13:51:32.007Z,100884.41
2023-01-11T13:56:40.582Z,100893.22
2023-01-11T14:01:50.423Z,100896.66
2023-01-11T14:07:13.802Z,100893.97
2023-01-11T14:12:28.698Z,100892.91
2023-01-11T14:17:46.909Z,100899.59
2023-01-11T14:22:59.652Z,100902.84
2023-01-11T14:28:27.729Z,100903.38
2023-01-11T14:34:05.953Z,100926.19
2023-01-11T14:39:30.433Z,100918.25
2023-01-11T14:45:00.606Z,100925.22
2023-01-11T14:50:26.721Z,100927.59
2023-01-11T14:55:33.016Z,100928.66
2023-01-11T15:01:06.242Z,100926.84
2023-01-11T15:06:14.803Z,100916.97
2023-01-11T15:11:41.655Z,100906.53
2023-01-11T15:17:07.744Z,100891.28
2023-01-11T15:22:25.206Z,100929.44
2023-01-11T15:27:33.664Z,100936.38
2023-01-11T15:32:37.267Z,100940.94
2023-01-11T15:37:55.040Z,100950.59
2023-01-11T15:43:32.998Z,100943.41
2023-01-11T15:48:48.815Z,100846.00
2023-01-11T15:54:14.738Z,100936.38
2023-01-11T15:59:47.813Z,100946.44
2023-01-11T16:04:54.328Z,100948.75
2023-01-11T16:10:16.276Z,100942.78
2023-01-11T16:15:35.325Z,100956.84
2023-01-11T16:20:38.639Z,100961.47
2023-01-11T16:25:43.121Z,100980.47
2023-01-11T16:30:48.048Z,100985.94
2023-01-11T16:35:50.620Z,100990.97
2023-01-11T16:40:55.286Z,100999.75
2023-01-11T16:45:59.622Z,100995.22
2023-01-11T16:51:07.317Z,100995.38
2023-01-11T16:56:17.177Z,100987.44
2023-01-11T17:01:21.280Z,100989.34
2023-01-11T17:06:25.305Z,100978.09
2023-01-11T17:11:31.783Z,101006.03
2023-01-11T17:16:40.310Z,101002.28
2023-01-11T17:21:48.702Z,101001.97
2023-01-11T17:26:54.168Z,100971.47
2023-01-11T17:32:00.335Z,100967.00
2023-01-11T17:37:10.163Z,100972.28
2023-01-11T17:42:33.040Z,100969.28
2023-01-11T17:47:39.939Z,101005.88
2023-01-11T17:52:53.942Z,101002.94
2023-01-11T17:58:19.852Z,100999.84
2023-01-11T18:03:23.925Z,101010.22
2023-01-11T18:08:26.528Z,101021.47
2023-01-11T18:13:34.455Z,101013.53
2023-01-11T18:18:47.174Z,101018.22
2023-01-11T18:23:49.769Z,101018.81
2023-01-11T18:28:52.322Z,101015.38
2023-01-11T18:33:57.982Z,100997.22
2023-01-11T18:39:01.837Z,100986.28
2023-01-11T18:44:04.817Z,100983.38
2023-01-11T18:49:08.994Z,100994.09
2023-01-11T18:54:16.863Z,100988.16
2023-01-11T18:59:19.466Z,100979.31
2023-01-11T19:04:23.429Z,100961.06
2023-01-11T19:09:32.269Z,100969.28
2023-01-11T19:14:52.098Z,100966.09
2023-01-11T19:20:14.889Z,100967.13
2023-01-11T19:25:17.575Z,100960.59
2023-01-11T19:36:09.425Z,100950.72
2023-01-11T19:47:11.656Z,100938.88
2023-01-11T19:52:24.678Z,100916.25
2023-01-11T19:57:43.368Z,100933.81
2023-01-11T20:02:49.589Z,100925.22
2023-01-11T20:07:54.464Z,100901.16
2023-01-11T20:12:57.191Z,100884.13
2023-01-11T20:17:59.739Z,100880.81
2023-01-11T20:23:03.606Z,100888.84
2023-01-11T20:28:06.160Z,100876.41
2023-01-11T20:33:09.910Z,100883.19
2023-01-11T20:38:13.869Z,100883.88
2023-01-11T20:43:17.345Z,100886.88
2023-01-11T20:48:19.918Z,100880.75
2023-01-11T20:53:23.847Z,100878.84
2023-01-11T20:58:26.469Z,100873.22
2023-01-11T21:03:29.472Z,100869.78
2023-01-11T21:08:34.430Z,100857.50
2023-01-11T21:13:37.269Z,100837.50
2023-01-11T21:18:43.288Z,100830.72
2023-01-11T21:23:47.889Z,100780.38
2023-01-11T21:28:52.601Z,100809.66
2023-01-11T21:33:57.509Z,100835.06
2023-01-11T21:39:02.492Z,100832.44
2023-01-11T21:44:05.401Z,100816.38
2023-01-11T21:49:08.662Z,100813.94
2023-01-11T21:54:14.880Z,100808.69
2023-01-11T21:59:17.874Z,100741.63
2023-01-11T22:04:21.627Z,100819.31
2023-01-11T22:09:25.923Z,100813.91
2023-01-11T22:14:30.369Z,100797.66
2023-01-11T22:19:32.972Z,100812.22
2023-01-11T22:24:36.870Z,100798.44
2023-01-11T22:29:41.719Z,100810.59
2023-01-11T22:34:44.356Z,100847.09
2023-01-11T22:39:48.249Z,100849.44
2023-01-11T22:44:53.286Z,100846.19
2023-01-11T22:49:56.702Z,100835.91
2023-01-11T22:55:00.591Z,100849.84
2023-01-11T23:00:04.521Z,100843.44
2023-01-11T23:05:08.458Z,100848.41
2023-01-11T23:10:13.498Z,100850.69
2023-01-11T23:15:16.021Z,100846.66
2023-01-11T23:20:19.377Z,100846.44
2023-01-11T23:25:23.262Z,100820.91
2023-01-11T23:30:26.215Z,100809.81
2023-01-11T23:35:28.760Z,100813.75
2023-01-11T23:40:53.565Z,100811.31
2023-01-11T23:46:16.151Z,100809.56
2023-01-11T23:51:18.788Z,100719.47
2023-01-11T23:56:22.662Z,100798.38
